Time;durP1;ratioP1;P1;durP2;ratioP2;P2;SDS_P1;SDS_P2;PMS_P1;PMS_P2;Temp;Humidity;BMP_temperature;BMP_pressure;BME280_temperature;BME280_humidity;BME280_pressure;Samples;Min_cycle;Max_cycle;Signal;HPM_P1;HPM_P2
2023/08/23 00:00:16;;;;;;;0.20;0.20;;;;;;;15.17;84.81;99092.31;4988127;28;20046;-73
2023/08/23 00:02:42;;;;;;;0.10;0.10;;;;;;;15.13;85.09;99092.13;4970825;28;20168;-73
2023/08/23 00:05:09;;;;;;;0.20;0.20;;;;;;;15.10;85.16;99095.53;4993023;28;20042;-73
2023/08/23 00:07:35;;;;;;;0.20;0.20;;;;;;;15.07;85.34;99090.69;4999419;28;20053;-73
2023/08/23 00:10:01;;;;;;;0.10;0.10;;;;;;;15.07;85.23;99096.19;4999152;28;20046;-74
2023/08/23 00:12:28;;;;;;;0.20;0.20;;;;;;;15.04;85.52;99091.34;4995806;28;20054;-73
2023/08/23 00:14:55;;;;;;;0.20;0.20;;;;;;;15.01;85.32;99092.78;4990240;28;20116;-73
2023/08/23 00:17:21;;;;;;;0.20;0.20;;;;;;;14.98;85.70;99087.09;4985430;28;20058;-73
2023/08/23 00:19:48;;;;;;;0.20;0.20;;;;;;;14.98;85.37;99093.44;4971009;28;20128;-73
2023/08/23 00:22:14;;;;;;;0.17;0.17;;;;;;;14.97;85.33;99090.97;4985968;28;20042;-72
2023/08/23 00:24:40;;;;;;;0.10;0.10;;;;;;;14.94;85.17;99088.88;4986244;28;20057;-72
2023/08/23 00:27:07;;;;;;;0.20;0.20;;;;;;;14.93;85.38;99090.84;4984864;28;20050;-73
2023/08/23 00:29:35;;;;;;;0.10;0.10;;;;;;;14.91;85.47;99093.09;4967944;28;20054;-72
2023/08/23 00:32:03;;;;;;;0.20;0.20;;;;;;;14.88;85.77;99086.28;4984545;28;20277;-75
2023/08/23 00:34:29;;;;;;;0.10;0.10;;;;;;;14.89;85.79;99087.91;4989515;28;20038;-73
2023/08/23 00:36:56;;;;;;;0.20;0.20;;;;;;;14.89;85.93;99087.09;4968166;28;20452;-74
2023/08/23 00:39:23;;;;;;;0.10;0.10;;;;;;;14.85;86.06;99084.19;4969656;28;20066;-74
2023/08/23 00:41:49;;;;;;;;;;;;;;;14.81;86.58;99091.44;4956614;28;20331;-74
2023/08/23 00:44:17;;;;;;;0.17;0.17;;;;;;;14.76;86.73;99082.56;4992597;28;20472;-73
2023/08/23 00:46:44;;;;;;;0.10;0.10;;;;;;;14.69;87.27;99089.28;4987430;28;20042;-74
2023/08/23 00:49:12;;;;;;;0.20;0.20;;;;;;;14.68;87.64;99095.94;4995576;28;20058;-74
2023/08/23 00:51:40;;;;;;;0.20;0.20;;;;;;;14.64;88.04;99083.13;4994960;28;20050;-73
2023/08/23 00:54:09;;;;;;;0.15;0.15;;;;;;;14.66;88.22;99083.59;4990636;28;20046;-74
2023/08/23 00:56:36;;;;;;;0.10;0.10;;;;;;;14.66;88.71;99086.34;4984792;28;20102;-73
2023/08/23 00:59:03;;;;;;;0.10;0.10;;;;;;;14.63;88.52;99087.81;4981364;28;20433;-74
2023/08/23 01:01:29;;;;;;;0.87;0.20;;;;;;;14.61;88.58;99090.09;4983694;28;20046;-74
2023/08/23 01:03:57;;;;;;;0.20;0.20;;;;;;;14.59;88.81;99081.31;4998947;28;20115;-74
2023/08/23 01:06:46;;;;;;;0.17;0.17;;;;;;;14.49;88.59;99065.94;4986742;28;20501;-74
2023/08/23 01:09:28;;;;;;;0.20;0.20;;;;;;;14.53;89.15;99075.19;4983780;28;20293;-74
2023/08/23 01:12:03;;;;;;;0.10;0.10;;;;;;;14.56;89.08;99080.03;4983237;28;20057;-75
2023/08/23 01:14:38;;;;;;;0.10;0.10;;;;;;;14.55;89.17;99078.41;4985221;28;20050;-74
2023/08/23 01:17:07;;;;;;;0.20;0.20;;;;;;;14.55;88.45;99066.59;4983414;28;20046;-73
2023/08/23 01:19:43;;;;;;;0.10;0.10;;;;;;;14.55;88.44;99064.66;4987513;28;20050;-74
2023/08/23 01:22:16;;;;;;;0.20;0.20;;;;;;;14.55;88.51;99069.34;4983251;28;20046;-74
2023/08/23 01:24:44;;;;;;;0.10;0.10;;;;;;;14.59;88.40;99079.41;4987120;28;20038;-74
2023/08/23 01:27:10;;;;;;;0.10;0.10;;;;;;;14.59;87.88;99065.63;4983492;28;20141;-74
2023/08/23 01:29:36;;;;;;;0.10;0.10;;;;;;;14.59;87.73;99065.63;4986033;28;20054;-74
2023/08/23 01:32:22;;;;;;;0.10;0.10;;;;;;;14.61;87.54;99068.88;4968625;28;20080;-75
2023/08/23 01:34:51;;;;;;;0.10;0.10;;;;;;;14.61;87.56;99070.84;4985378;28;20045;-74
2023/08/23 01:37:20;;;;;;;0.10;0.10;;;;;;;14.61;87.59;99065.34;4946609;28;20078;-74
2023/08/23 01:39:48;;;;;;;0.13;0.13;;;;;;;14.60;87.63;99070.00;4987340;28;20065;-73
2023/08/23 01:42:14;;;;;;;0.10;0.10;;;;;;;14.55;87.54;99061.91;4984695;28;20158;-74
2023/08/23 01:44:43;;;;;;;0.10;0.10;;;;;;;14.54;88.28;99073.22;4984697;28;20108;-74
2023/08/23 01:47:09;;;;;;;0.20;0.20;;;;;;;14.50;88.39;99073.03;4976614;28;20057;-73
2023/08/23 01:49:35;;;;;;;0.20;0.20;;;;;;;14.50;88.51;99072.25;4988865;28;20046;-74
2023/08/23 01:52:02;;;;;;;0.10;0.10;;;;;;;14.50;88.51;99059.28;4968722;28;20074;-74
2023/08/23 01:54:28;;;;;;;0.10;0.10;;;;;;;14.49;88.62;99068.69;4986987;28;20065;-73
2023/08/23 01:56:56;;;;;;;0.20;0.20;;;;;;;14.48;88.76;99064.31;4991239;28;20050;-73
2023/08/23 01:59:22;;;;;;;0.10;0.10;;;;;;;14.50;88.53;99067.53;4990260;28;20141;-73
2023/08/23 02:01:49;;;;;;;0.10;0.10;;;;;;;14.50;88.50;99066.75;4984867;28;20141;-72
2023/08/23 02:04:19;;;;;;;0.10;0.10;;;;;;;14.50;88.51;99061.25;4987006;28;20082;-72
2023/08/23 02:06:46;;;;;;;0.10;0.10;;;;;;;14.49;88.53;99063.19;4969075;28;20201;-73
2023/08/23 02:09:13;;;;;;;0.10;0.10;;;;;;;14.48;88.94;99061.56;4985899;28;20073;-73
2023/08/23 02:11:39;;;;;;;0.20;0.20;;;;;;;14.45;88.56;99056.69;4983363;28;20104;-73
2023/08/23 02:14:07;;;;;;;0.13;0.13;;;;;;;14.48;88.31;99069.00;4984874;28;20038;-72
2023/08/23 02:16:33;;;;;;;0.20;0.20;;;;;;;14.45;88.46;99068.53;4981490;28;20054;-72
2023/08/23 02:18:59;;;;;;;0.13;0.13;;;;;;;14.49;88.80;99073.38;4983658;28;20081;-73
2023/08/23 02:21:25;;;;;;;0.20;0.20;;;;;;;14.52;88.88;99076.31;4986453;28;20054;-73
2023/08/23 02:23:52;;;;;;;0.10;0.10;;;;;;;14.55;88.84;99072.09;4987473;28;20470;-74
2023/08/23 02:26:18;;;;;;;0.20;0.20;;;;;;;14.51;88.32;99057.38;4985644;28;20053;-72
2023/08/23 02:28:44;;;;;;;0.10;0.10;;;;;;;14.64;88.39;99069.38;4985527;28;20053;-74
2023/08/23 02:31:11;;;;;;;0.10;0.10;;;;;;;14.72;87.60;99068.63;4985222;28;20047;-73
2023/08/23 02:33:38;;;;;;;0.20;0.20;;;;;;;14.83;87.81;99069.13;4966936;28;20052;-74
2023/08/23 02:36:04;;;;;;;0.10;0.10;;;;;;;14.95;87.24;99066.56;4978765;28;20054;-73
2023/08/23 02:38:30;;;;;;;0.30;0.30;;;;;;;15.03;86.65;99070.44;4985265;28;20098;-74
2023/08/23 02:40:56;;;;;;;0.10;0.10;;;;;;;15.10;85.89;99075.47;4985890;28;20068;-73
2023/08/23 02:43:22;;;;;;;0.10;0.10;;;;;;;15.14;85.83;99079.19;4991487;28;20054;-74
2023/08/23 02:45:48;;;;;;;0.10;0.10;;;;;;;15.21;85.33;99070.44;4970976;28;20042;-74
2023/08/23 02:48:16;;;;;;;0.10;0.10;;;;;;;15.21;85.25;99081.47;4985360;28;20066;-73
2023/08/23 02:50:44;;;;;;;0.17;0.17;;;;;;;15.15;85.79;99073.38;5003822;28;20057;-73
2023/08/23 02:53:11;;;;;;;0.10;0.10;;;;;;;15.12;85.58;99073.19;4971071;28;20057;-74
2023/08/23 02:55:37;;;;;;;0.20;0.20;;;;;;;15.12;85.97;99071.25;4997031;28;20042;-74
2023/08/23 02:58:04;;;;;;;0.20;0.20;;;;;;;15.17;85.85;99073.84;4985401;28;20050;-74
2023/08/23 03:00:30;;;;;;;0.20;0.20;;;;;;;15.17;85.25;99075.78;4998959;28;20050;-73
2023/08/23 03:02:56;;;;;;;0.20;0.20;;;;;;;15.19;85.35;99078.22;4988822;28;20101;-74
2023/08/23 03:05:24;;;;;;;0.17;0.17;;;;;;;15.23;85.97;99076.44;4988882;28;20050;-74
2023/08/23 03:07:50;;;;;;;0.30;0.30;;;;;;;15.27;85.65;99074.66;4967859;28;20050;-74
2023/08/23 03:10:16;;;;;;;0.20;0.20;;;;;;;15.35;85.52;99079.38;4987031;28;20417;-74
2023/08/23 03:12:42;;;;;;;0.20;0.20;;;;;;;15.43;85.03;99077.75;4986939;28;20046;-74
2023/08/23 03:15:09;;;;;;;0.20;0.20;;;;;;;15.44;84.19;99062.81;4995571;28;20137;-74
2023/08/23 03:17:36;;;;;;;0.20;0.20;;;;;;;15.58;84.53;99071.72;4999735;28;20046;-73
2023/08/23 03:20:03;;;;;;;0.30;0.30;;;;;;;15.67;83.87;99071.72;4987811;28;20050;-74
2023/08/23 03:22:33;;;;;;;0.20;0.20;;;;;;;15.72;83.85;99076.25;4986266;28;20278;-73
2023/08/23 03:24:59;;;;;;;0.20;0.20;;;;;;;15.73;83.52;99077.88;4952807;28;20124;-74
2023/08/23 03:27:25;;;;;;;0.20;0.20;;;;;;;15.76;83.47;99071.69;5006478;28;20046;-72
2023/08/23 03:29:52;;;;;;;0.20;0.20;;;;;;;15.82;82.89;99078.63;4985077;28;20053;-73
2023/08/23 03:32:19;;;;;;;0.20;0.20;;;;;;;15.86;82.45;99074.13;4986153;28;20564;-72
2023/08/23 03:34:47;;;;;;;0.20;0.20;;;;;;;15.88;82.33;99076.53;4967590;28;20145;-73
2023/08/23 03:37:13;;;;;;;0.20;0.20;;;;;;;15.94;82.75;99074.44;4998917;28;20053;-72
2023/08/23 03:39:41;;;;;;;0.25;0.25;;;;;;;15.96;82.19;99067.47;4988437;28;20066;-72
2023/08/23 03:42:07;;;;;;;0.20;0.20;;;;;;;15.92;82.20;99069.28;4996574;28;20157;-73
2023/08/23 03:44:34;;;;;;;0.30;0.30;;;;;;;16.01;82.50;99067.28;4986343;28;20149;-72
2023/08/23 03:47:01;;;;;;;0.20;0.20;;;;;;;16.12;81.78;99069.69;4985834;28;20089;-73
2023/08/23 03:49:28;;;;;;;0.20;0.20;;;;;;;16.23;81.42;99075.63;4985858;28;20050;-73
2023/08/23 03:51:54;;;;;;;0.20;0.20;;;;;;;16.40;80.46;99067.28;4982909;28;20087;-73
2023/08/23 03:54:21;;;;;;;0.20;0.20;;;;;;;16.50;80.25;99068.06;5003910;28;20613;-72
2023/08/23 03:56:49;;;;;;;0.20;0.20;;;;;;;16.63;80.00;99057.91;4970895;28;20556;-73
2023/08/23 03:59:15;;;;;;;0.20;0.20;;;;;;;16.77;79.34;99060.41;4988209;28;20054;-73
2023/08/23 04:01:43;;;;;;;0.20;0.20;;;;;;;16.82;78.74;99060.25;4986397;28;20144;-72
2023/08/23 04:04:10;;;;;;;0.20;0.20;;;;;;;16.81;78.51;99061.41;4989980;28;20052;-71
2023/08/23 04:06:36;;;;;;;0.20;0.20;;;;;;;16.85;79.04;99060.38;5006617;28;20041;-71
2023/08/23 04:09:02;;;;;;;0.25;0.25;;;;;;;16.94;78.61;99054.81;4974135;28;20042;-72
2023/08/23 04:11:28;;;;;;;0.20;0.20;;;;;;;17.03;78.47;99049.25;4988073;28;20145;-72
2023/08/23 04:13:56;;;;;;;0.20;0.20;;;;;;;17.10;78.08;99063.31;4985449;28;20185;-72
2023/08/23 04:16:21;;;;;;;;;;;;;;;17.13;78.00;99059.88;4983183;28;20093;-71
2023/08/23 04:18:48;;;;;;;0.20;0.20;;;;;;;17.18;77.24;99056.09;4967392;28;20332;-72
2023/08/23 04:21:14;;;;;;;0.20;0.20;;;;;;;17.23;76.90;99061.41;4983046;28;20104;-73
2023/08/23 04:23:40;;;;;;;0.20;0.20;;;;;;;17.22;76.72;99070.06;4985149;28;20138;-73
2023/08/23 04:26:07;;;;;;;0.20;0.20;;;;;;;17.11;77.21;99064.13;4970256;28;20137;-72
2023/08/23 04:28:33;;;;;;;0.25;0.25;;;;;;;17.06;76.99;99062.38;4982953;28;20046;-73
2023/08/23 04:31:03;;;;;;;0.20;0.20;;;;;;;17.08;77.54;99054.56;4983400;28;20074;-72
2023/08/23 04:33:40;;;;;;;0.22;0.22;;;;;;;17.14;76.90;99052.41;4981834;28;20480;-73
2023/08/23 04:36:06;;;;;;;;;;;;;;;17.19;77.01;99052.19;4985796;28;20050;-72
2023/08/23 04:38:32;;;;;;;0.40;0.30;;;;;;;17.27;76.59;99036.69;4972019;28;19925;-74
2023/08/23 04:41:00;;;;;;;0.30;0.30;;;;;;;17.40;76.25;99034.78;4984050;28;20125;-74
2023/08/23 04:43:26;;;;;;;0.25;0.25;;;;;;;17.48;75.47;99036.66;4999454;28;20088;-74
2023/08/23 04:45:54;;;;;;;0.20;0.20;;;;;;;17.52;74.98;99045.09;4985113;28;20518;-74
2023/08/23 04:48:23;;;;;;;0.20;0.20;;;;;;;17.51;74.74;99049.00;4975070;28;20046;-75
2023/08/23 04:50:53;;;;;;;0.30;0.30;;;;;;;17.54;75.20;99045.56;4975440;28;20061;-74
2023/08/23 04:53:19;;;;;;;0.30;0.30;;;;;;;17.76;74.04;99049.88;4985077;28;20039;-74
2023/08/23 04:55:47;;;;;;;0.30;0.30;;;;;;;17.85;73.31;99045.06;4983370;28;20046;-74
2023/08/23 04:58:13;;;;;;;0.30;0.30;;;;;;;17.92;73.22;99041.72;4969570;28;20153;-74
2023/08/23 05:00:39;;;;;;;0.30;0.30;;;;;;;17.96;72.94;99048.22;4983598;28;20081;-73
2023/08/23 05:03:07;;;;;;;0.40;0.40;;;;;;;18.10;72.72;99041.56;4985046;28;20050;-74
2023/08/23 05:05:35;;;;;;;0.30;0.30;;;;;;;18.45;71.89;99049.44;4973785;28;20169;-74
2023/08/23 05:08:02;;;;;;;0.30;0.30;;;;;;;18.67;70.79;99050.91;4976198;28;20081;-73
2023/08/23 05:10:29;;;;;;;0.30;0.30;;;;;;;18.62;69.43;99044.81;4981913;28;20050;-74
2023/08/23 05:12:58;;;;;;;0.30;0.30;;;;;;;18.52;70.04;99046.88;4985777;28;20054;-74
2023/08/23 05:15:24;;;;;;;0.30;0.30;;;;;;;18.59;69.65;99051.84;4983015;28;20045;-74
2023/08/23 05:17:52;;;;;;;0.30;0.30;;;;;;;18.60;68.77;99047.91;4989087;28;20065;-74
2023/08/23 05:20:18;;;;;;;0.30;0.30;;;;;;;18.63;69.09;99047.22;4984183;28;20561;-74
2023/08/23 05:22:46;;;;;;;0.30;0.30;;;;;;;18.56;68.25;99047.78;4975015;28;20513;-74
2023/08/23 05:25:13;;;;;;;0.30;0.30;;;;;;;18.58;68.46;99044.69;4982876;28;20542;-73
2023/08/23 05:27:40;;;;;;;0.30;0.30;;;;;;;18.83;67.22;99041.91;4966396;28;20492;-74
2023/08/23 05:30:08;;;;;;;0.30;0.30;;;;;;;19.05;66.42;99045.31;4986829;28;20513;-74
2023/08/23 05:32:35;;;;;;;0.30;0.30;;;;;;;19.25;65.78;99044.31;4983670;28;20069;-74
2023/08/23 05:35:03;;;;;;;0.30;0.30;;;;;;;19.49;63.67;99044.59;4985464;28;20133;-74
2023/08/23 05:37:29;;;;;;;0.30;0.30;;;;;;;19.31;64.21;99041.31;4976344;28;20046;-75
2023/08/23 05:39:59;;;;;;;0.30;0.30;;;;;;;19.35;64.25;99037.47;4983208;28;20051;-75
2023/08/23 05:42:26;;;;;;;0.30;0.30;;;;;;;19.39;63.54;99034.81;4977527;28;20288;-73
2023/08/23 05:44:52;;;;;;;0.20;0.20;;;;;;;19.34;63.77;99035.06;4969928;28;20521;-74
2023/08/23 05:47:19;;;;;;;0.30;0.30;;;;;;;19.26;62.98;99032.09;4970122;28;20073;-74
2023/08/23 05:49:48;;;;;;;0.30;0.30;;;;;;;19.07;64.01;99035.53;4981043;28;20141;-74
2023/08/23 05:52:15;;;;;;;0.30;0.30;;;;;;;19.01;63.98;99031.38;4988943;28;20073;-75
2023/08/23 05:54:41;;;;;;;0.30;0.30;;;;;;;19.09;62.75;99041.50;4991120;28;20077;-74
2023/08/23 05:57:09;;;;;;;0.30;0.30;;;;;;;19.02;61.15;99035.75;4985842;28;20054;-74
2023/08/23 05:59:35;;;;;;;0.35;0.30;;;;;;;18.95;60.66;99032.75;4970359;28;20065;-73
2023/08/23 06:02:02;;;;;;;0.40;0.40;;;;;;;18.94;61.04;99031.94;4988417;28;20136;-73
2023/08/23 06:04:29;;;;;;;0.30;0.30;;;;;;;19.09;60.78;99027.66;4980623;28;20042;-74
2023/08/23 06:06:55;;;;;;;0.30;0.30;;;;;;;19.45;59.92;99029.81;4971012;28;20141;-73
2023/08/23 06:09:21;;;;;;;0.30;0.30;;;;;;;19.82;59.05;99021.28;4995451;28;20053;-72
2023/08/23 06:11:48;;;;;;;0.30;0.30;;;;;;;20.08;57.67;99039.44;4988142;28;21330;-72
2023/08/23 06:14:24;;;;;;;0.20;0.20;;;;;;;19.86;57.77;99030.53;4993480;28;20042;-74
2023/08/23 06:16:51;;;;;;;0.20;0.20;;;;;;;19.61;58.75;99032.66;5001662;28;20054;-74
2023/08/23 06:19:17;;;;;;;0.30;0.30;;;;;;;19.22;58.66;99027.63;4993817;28;20137;-74
2023/08/23 06:21:44;;;;;;;0.30;0.30;;;;;;;18.97;59.50;99027.66;4991596;28;20105;-73
2023/08/23 06:24:11;;;;;;;0.20;0.20;;;;;;;18.92;59.09;99025.16;4962974;28;20046;-74
2023/08/23 06:26:37;;;;;;;0.30;0.30;;;;;;;19.15;59.64;99030.16;4995452;28;20104;-73
2023/08/23 06:29:03;;;;;;;0.37;0.30;;;;;;;19.38;58.61;99027.66;4969720;28;20093;-73
2023/08/23 06:31:32;;;;;;;0.30;0.30;;;;;;;19.48;58.16;99029.13;4988389;28;20046;-72
2023/08/23 06:33:58;;;;;;;0.30;0.30;;;;;;;19.68;58.10;99025.34;4988963;28;21416;-72
2023/08/23 06:36:24;;;;;;;0.30;0.30;;;;;;;19.78;58.30;99029.53;4991689;28;20215;-72
2023/08/23 06:38:50;;;;;;;0.30;0.30;;;;;;;19.75;59.00;99032.22;4989930;28;20581;-72
2023/08/23 06:41:17;;;;;;;0.30;0.30;;;;;;;19.80;59.54;99026.41;4988860;28;20513;-72
2023/08/23 06:43:46;;;;;;;0.35;0.35;;;;;;;19.79;59.72;99031.16;4989336;28;20057;-72
2023/08/23 06:46:15;;;;;;;0.30;0.30;;;;;;;19.62;60.03;99031.50;4986858;28;20043;-72
2023/08/23 06:48:42;;;;;;;0.30;0.30;;;;;;;19.42;60.05;99034.91;4990974;28;20096;-72
2023/08/23 06:51:08;;;;;;;0.20;0.20;;;;;;;19.07;62.37;99026.38;4989022;28;20080;-72
2023/08/23 06:53:35;;;;;;;0.20;0.20;;;;;;;18.86;63.38;99030.13;4972231;28;20043;-72
2023/08/23 06:56:01;;;;;;;0.30;0.30;;;;;;;18.70;64.44;99030.84;4966417;28;20038;-74
2023/08/23 06:58:27;;;;;;;0.30;0.30;;;;;;;18.49;65.52;99038.44;5001703;28;20595;-74
2023/08/23 07:00:56;;;;;;;0.57;0.30;;;;;;;18.11;68.40;99054.25;4991416;28;20390;-74
2023/08/23 07:03:22;;;;;;;0.20;0.20;;;;;;;17.51;76.24;99041.50;4988296;28;20068;-73
2023/08/23 07:05:58;;;;;;;0.20;0.20;;;;;;;16.76;81.89;99040.31;4998620;28;20603;-72
2023/08/23 07:08:26;;;;;;;0.30;0.30;;;;;;;16.47;86.67;99046.63;4980951;28;20173;-72
2023/08/23 07:10:55;;;;;;;0.20;0.20;;;;;;;16.23;90.79;99037.03;5002573;28;20045;-74
2023/08/23 07:13:21;;;;;;;0.20;0.20;;;;;;;16.09;92.64;99045.53;4988615;28;20043;-72
2023/08/23 07:15:47;;;;;;;0.20;0.20;;;;;;;16.11;93.91;99040.50;4985382;28;20047;-73
2023/08/23 07:18:14;;;;;;;0.20;0.20;;;;;;;16.09;92.40;99048.28;4987626;28;20466;-73
2023/08/23 07:20:40;;;;;;;0.20;0.20;;;;;;;16.12;92.07;99048.41;5007589;28;20057;-74
2023/08/23 07:23:07;;;;;;;0.30;0.30;;;;;;;16.24;92.42;99050.50;4993174;28;20314;-74
2023/08/23 07:25:33;;;;;;;0.20;0.20;;;;;;;16.47;92.76;99049.41;4992749;28;20047;-74
2023/08/23 07:28:00;;;;;;;0.30;0.30;;;;;;;16.66;91.39;99032.41;4979876;28;20540;-74
2023/08/23 07:30:26;;;;;;;0.20;0.20;;;;;;;16.87;87.02;99043.47;5007076;28;20048;-71
2023/08/23 07:32:55;;;;;;;0.30;0.30;;;;;;;17.08;85.83;99034.41;4991911;28;20533;-74
2023/08/23 07:35:22;;;;;;;0.30;0.30;;;;;;;17.49;82.79;99040.25;4998480;28;20065;-72
2023/08/23 07:37:50;;;;;;;0.30;0.30;;;;;;;17.76;80.20;99036.06;5004787;28;20053;-71
2023/08/23 07:40:18;;;;;;;0.30;0.30;;;;;;;18.03;78.65;99036.63;4976879;28;20045;-73
2023/08/23 07:42:45;;;;;;;0.30;0.30;;;;;;;18.30;77.75;99048.16;4988186;28;20058;-72
2023/08/23 07:45:11;;;;;;;0.30;0.30;;;;;;;18.56;76.67;99041.47;5003716;28;20096;-73
2023/08/23 07:47:37;;;;;;;0.30;0.30;;;;;;;18.79;74.80;99035.41;4991500;28;20050;-73
2023/08/23 07:50:04;;;;;;;0.30;0.30;;;;;;;18.90;74.14;99049.63;4988559;28;20046;-74
2023/08/23 07:52:31;;;;;;;0.30;0.30;;;;;;;18.94;73.08;99042.22;4986403;28;20050;-74
2023/08/23 07:54:57;;;;;;;0.30;0.30;;;;;;;18.87;73.58;99041.97;4968875;28;20050;-74
2023/08/23 07:57:24;;;;;;;0.30;0.30;;;;;;;19.04;72.22;99044.50;4989281;28;20112;-72
2023/08/23 07:59:52;;;;;;;0.30;0.30;;;;;;;18.96;71.10;99035.16;5006067;28;20133;-72
2023/08/23 08:02:18;;;;;;;0.30;0.30;;;;;;;19.07;71.53;99037.47;4996963;28;20061;-72
2023/08/23 08:04:46;;;;;;;0.30;0.30;;;;;;;19.22;69.26;99041.47;4990751;28;20084;-72
2023/08/23 08:07:13;;;;;;;0.30;0.30;;;;;;;19.22;68.48;99038.72;4985574;28;20588;-72
2023/08/23 08:09:40;;;;;;;0.40;0.40;;;;;;;19.48;67.17;99020.78;4991189;28;20058;-73
2023/08/23 08:12:06;;;;;;;0.30;0.30;;;;;;;19.92;65.85;99034.69;4952974;28;20057;-72
2023/08/23 08:14:34;;;;;;;0.40;0.40;;;;;;;19.87;65.94;99029.38;4994431;28;20054;-74
2023/08/23 08:17:00;;;;;;;0.30;0.30;;;;;;;19.70;66.24;99031.31;5002907;28;20060;-75
2023/08/23 08:19:28;;;;;;;0.30;0.30;;;;;;;19.56;67.09;99023.41;4995165;28;20331;-75
2023/08/23 08:21:56;;;;;;;0.30;0.30;;;;;;;19.93;65.92;99033.50;4952247;28;20043;-73
2023/08/23 08:24:24;;;;;;;0.35;0.35;;;;;;;19.89;65.46;99034.53;4973060;28;20153;-75
2023/08/23 08:26:51;;;;;;;0.30;0.30;;;;;;;19.47;66.70;99033.03;4988386;28;20101;-75
2023/08/23 08:29:17;;;;;;;0.32;0.32;;;;;;;19.44;67.13;99031.00;4982074;28;20053;-73
2023/08/23 08:31:50;;;;;;;0.30;0.30;;;;;;;19.52;66.65;99027.25;5000637;28;20050;-72
2023/08/23 08:34:17;;;;;;;0.30;0.30;;;;;;;19.50;66.93;99032.34;4984698;28;20306;-72
2023/08/23 08:36:43;;;;;;;0.30;0.30;;;;;;;19.22;67.98;99035.94;4984806;28;20054;-72
2023/08/23 08:39:10;;;;;;;0.30;0.30;;;;;;;19.01;69.25;99036.91;4983448;28;20074;-72
2023/08/23 08:41:37;;;;;;;0.30;0.30;;;;;;;18.83;70.11;99031.59;4990893;28;20545;-72
2023/08/23 08:44:07;;;;;;;0.20;0.20;;;;;;;18.61;72.39;99032.91;5003156;28;20108;-74
2023/08/23 08:46:34;;;;;;;0.30;0.30;;;;;;;18.62;72.51;99030.97;4998635;28;20057;-75
2023/08/23 08:49:03;;;;;;;0.30;0.30;;;;;;;18.62;71.71;99030.97;4969351;28;20050;-73
2023/08/23 08:51:32;;;;;;;0.30;0.30;;;;;;;18.66;70.75;99041.00;4982836;28;20053;-72
2023/08/23 08:53:58;;;;;;;0.30;0.30;;;;;;;18.84;70.97;99036.00;4985847;28;20058;-72
2023/08/23 08:56:26;;;;;;;0.40;0.40;;;;;;;19.02;69.55;99038.50;4983305;28;20054;-73
2023/08/23 08:58:52;;;;;;;;;;;;;;;18.94;69.83;99039.44;4985681;28;20085;-74
2023/08/23 09:01:20;;;;;;;0.30;0.30;;;;;;;19.08;69.83;99044.63;4985036;28;19925;-74
2023/08/23 09:03:49;;;;;;;0.30;0.30;;;;;;;19.18;67.76;99049.69;4985049;28;20070;-74
2023/08/23 09:06:20;;;;;;;0.30;0.30;;;;;;;19.03;67.67;99047.66;4987155;28;20057;-74
2023/08/23 09:08:46;;;;;;;0.30;0.30;;;;;;;19.04;67.42;99041.72;4993910;28;20042;-74
2023/08/23 09:11:13;;;;;;;0.30;0.30;;;;;;;19.30;66.96;99040.50;5003256;28;20409;-74
2023/08/23 09:13:39;;;;;;;0.30;0.30;;;;;;;19.58;66.13;99041.66;4992480;28;20501;-74
2023/08/23 09:16:05;;;;;;;0.30;0.30;;;;;;;19.77;65.33;99046.53;4985940;28;20167;-75
2023/08/23 09:18:33;;;;;;;0.40;0.40;;;;;;;19.77;64.77;99046.53;4996635;28;20546;-73
2023/08/23 09:29:39;;;;;;;0.30;0.30;;;;;;;19.42;65.33;99036.88;4978665;28;20192;-73
2023/08/23 09:32:06;;;;;;;0.30;0.30;;;;;;;19.42;65.41;99042.41;4993907;28;20505;-75
2023/08/23 09:34:32;;;;;;;0.30;0.30;;;;;;;19.43;65.54;99041.25;4981551;28;20053;-73
2023/08/23 09:37:07;;;;;;;0.30;0.30;;;;;;;19.61;65.26;99041.75;4984071;28;20078;-72
2023/08/23 09:39:33;;;;;;;0.30;0.30;;;;;;;19.73;64.66;99040.88;4948436;28;20493;-73
2023/08/23 09:42:04;;;;;;;0.30;0.30;;;;;;;19.83;63.88;99050.66;4986174;28;20049;-74
2023/08/23 09:44:35;;;;;;;0.30;0.30;;;;;;;19.89;64.43;99048.41;4986772;28;20121;-74
2023/08/23 09:47:06;;;;;;;0.40;0.40;;;;;;;20.11;63.39;99035.94;5002626;28;20434;-73
2023/08/23 09:49:35;;;;;;;0.30;0.30;;;;;;;20.47;62.01;99038.78;4986436;28;20046;-75
2023/08/23 09:52:03;;;;;;;0.40;0.40;;;;;;;20.75;60.48;99044.19;4973932;28;20081;-72
2023/08/23 09:54:43;;;;;;;0.40;0.40;;;;;;;20.94;59.44;99045.44;4987041;28;20320;-72
2023/08/23 09:57:10;;;;;;;0.40;0.40;;;;;;;21.31;58.35;99036.66;4976894;28;20068;-72
2023/08/23 09:59:37;;;;;;;0.40;0.40;;;;;;;21.67;57.96;99031.81;4985013;28;20046;-72
2023/08/23 10:02:10;;;;;;;0.30;0.30;;;;;;;21.79;56.70;99025.31;4984209;28;20058;-73
2023/08/23 10:04:40;;;;;;;0.30;0.30;;;;;;;21.36;57.66;99021.69;4964733;28;20089;-73
2023/08/23 10:07:08;;;;;;;0.60;0.60;;;;;;;21.42;57.33;99020.19;4994063;28;20054;-72
2023/08/23 10:09:35;;;;;;;0.50;0.50;;;;;;;22.66;53.92;99029.50;4982762;28;20158;-74
2023/08/23 10:12:03;;;;;;;0.30;0.30;;;;;;;23.14;51.81;99019.00;4984668;28;20070;-72
2023/08/23 10:14:38;;;;;;;0.40;0.40;;;;;;;23.01;52.45;99026.78;4976605;28;20058;-73
2023/08/23 10:17:08;;;;;;;0.40;0.40;;;;;;;22.88;53.02;99024.25;4986171;28;20057;-73
2023/08/23 10:19:34;;;;;;;0.30;0.30;;;;;;;22.95;52.81;99027.13;4978223;28;20110;-73
2023/08/23 10:22:01;;;;;;;0.40;0.40;;;;;;;22.88;53.03;99027.03;4956071;28;20042;-74
2023/08/23 10:24:28;;;;;;;0.30;0.30;;;;;;;23.06;51.67;99020.91;4983839;28;20319;-71
2023/08/23 10:26:54;;;;;;;0.30;0.30;;;;;;;22.90;51.90;99015.50;4971894;28;20100;-72
2023/08/23 10:29:27;;;;;;;0.30;0.30;;;;;;;22.54;53.06;99029.72;5002995;28;20053;-71
2023/08/23 10:31:54;;;;;;;0.30;0.30;;;;;;;21.99;54.59;99025.25;5002449;28;20424;-71
2023/08/23 10:34:33;;;;;;;0.30;0.30;;;;;;;21.41;56.35;99018.59;4951846;28;20053;-71
2023/08/23 10:36:59;;;;;;;0.20;0.20;;;;;;;20.83;58.33;99026.56;4987572;28;20097;-73
2023/08/23 10:39:26;;;;;;;0.30;0.30;;;;;;;20.46;59.84;99035.22;4993467;28;20140;-73
2023/08/23 10:41:54;;;;;;;0.25;0.25;;;;;;;19.93;59.05;99033.50;4978154;28;20079;-72
2023/08/23 10:44:20;;;;;;;0.30;0.30;;;;;;;19.22;59.79;99031.19;4983126;28;20078;-72
2023/08/23 10:46:51;;;;;;;0.30;0.30;;;;;;;18.75;61.33;99027.03;4992718;28;20449;-72
2023/08/23 10:49:22;;;;;;;0.30;0.30;;;;;;;18.55;62.81;99035.09;4987781;28;20319;-80
2023/08/23 10:51:51;;;;;;;0.30;0.30;;;;;;;18.41;64.48;99040.19;4984187;28;20054;-80
2023/08/23 10:54:18;;;;;;;0.30;0.30;;;;;;;18.22;66.56;99030.50;5001783;28;20058;-74
2023/08/23 10:56:44;;;;;;;0.20;0.20;;;;;;;18.33;67.26;99044.69;4989360;28;20057;-74
2023/08/23 10:59:10;;;;;;;0.30;0.30;;;;;;;18.34;67.00;99029.72;5008109;28;20053;-74
2023/08/23 11:01:38;;;;;;;0.30;0.30;;;;;;;18.68;66.95;99044.22;4992322;28;20410;-74
2023/08/23 11:04:05;;;;;;;0.30;0.30;;;;;;;19.04;66.81;99032.63;4988505;28;20046;-74
2023/08/23 11:06:32;;;;;;;0.30;0.30;;;;;;;19.50;65.70;99044.25;4989696;28;20076;-73
2023/08/23 11:09:00;;;;;;;0.30;0.30;;;;;;;19.96;63.48;99024.47;5002466;28;20058;-74
2023/08/23 11:11:30;;;;;;;0.50;0.50;;;;;;;20.79;60.94;99028.41;4969642;28;20038;-73
2023/08/23 11:13:57;;;;;;;0.50;0.50;;;;;;;22.23;57.62;99018.50;4981572;28;20356;-74
2023/08/23 11:16:23;;;;;;;0.30;0.30;;;;;;;23.06;54.93;99029.25;4987592;28;20051;-73
2023/08/23 11:18:49;;;;;;;0.20;0.20;;;;;;;23.08;53.83;99033.25;4988010;28;20560;-74
2023/08/23 11:21:16;;;;;;;0.30;0.30;;;;;;;22.93;53.74;99035.06;4984395;28;20417;-73
2023/08/23 11:23:42;;;;;;;0.20;0.20;;;;;;;22.24;55.78;99034.00;4991499;28;20053;-73
2023/08/23 11:26:10;;;;;;;0.30;0.30;;;;;;;21.68;57.12;99038.22;5000934;28;20054;-74
2023/08/23 11:28:37;;;;;;;0.30;0.30;;;;;;;21.30;57.99;99032.28;5007468;28;20054;-74
2023/08/23 11:31:06;;;;;;;0.30;0.30;;;;;;;21.05;59.05;99031.78;5006841;28;20046;-74
2023/08/23 11:33:33;;;;;;;0.20;0.20;;;;;;;20.82;60.32;99035.25;4969049;28;20513;-75
2023/08/23 11:36:01;;;;;;;0.20;0.20;;;;;;;20.56;60.89;99036.63;4966189;28;20077;-83
2023/08/23 11:38:28;;;;;;;0.20;0.20;;;;;;;20.21;61.53;99038.19;4998357;28;20042;-83
2023/08/23 11:40:54;;;;;;;0.20;0.20;;;;;;;19.88;61.37;99033.75;4996637;28;20039;-82
2023/08/23 11:43:25;;;;;;;0.30;0.30;;;;;;;19.71;61.75;99034.88;4989971;28;20054;-82